FUEL COST

JET-A w/FSII- $4.50
AVGAS- $5.70

TIE-DOWNS & HANGARS ›››

SPECIAL EVENTS ›››

Welcome to Tipton Airportslide1Slide8slide7slide5slide3slide2chopperhangar84

SFRA ALERT ›››

Updated every 20 minutes
KMFE 241753Z 18008KT 10SM FEW033 31/21 A2980

ELV. 150'
3000 X 75

RWY 28 LP
RWY 10 RP
PA 1000 msl

CTAF 123.05
AWOS-3 123.925

Activate MIRL-CTAF
Beacon Green-White

Tipton Airport is within the Washington DC SFRA, You must,  at a MINIMUM, do these four things!

1. file a flight plan with FSS,
2. have a working transponder,
3. maintain radio communications with ATC,
4. receive a unique code from ATC   for all flights in, out, or within the SFRA.

For more information, go to  FAA.gov


FLYING IS EASY

FOR PLEASURE OR BUSINESS

Recently renovated runways, and a prime position between Washington, D.C. and Baltimore, assure that Tipton Airport is well-equipped to provide exceptional service to residents and businesses of Central Maryland.

Tipton is located just south of Fort George G. Meade in Odenton, and is equidistant from Baltimore, Washington, D.C., Annapolis, and Columbia. Immediate access to Maryland’s major roads and freeways (I-95, I-97, Route 32, and MD 295) keeps all of the region within your reach.

For Directions >>>

Access. Amenities. Ascending.

Whether you’ve made us your home, or are just staying for the day, Tipton Airport works continually to upgrade your airport experience. Welcome to Maryland.